Latest Weather Observations for Laverton

IDW60801

Issued at 8:05 am WST Sunday 31 August 2014 (issued every 30 minutes, with the page automatically refreshed every 10 minutes)

About weather observations | Map of weather stations | Latest weather observations for WA | Other Formats
Station Details ID: 012305 Name: LAVERTON AERO Lat: -28.61 Lon: 122.42 Height: 464.3 m
Data from the previous 72 hours. | See also: Recent months at Laverton
Date/Time
WST
Temp
°C
App
Temp
°C
Dew
Point
Rel
Hum
%
Delta-T
°C
Wind Press
QNH
hPa
Press
MSL
hPa
Rain
since 9 am
mm
Dir
 
Spd
km/h
Gust
km/h
Spd
kts
Gust
kts
31/08:00am 16.2 14.7 10.7 70 3.0 NW 9 13 5 7 1018.9 1018.3 0.0
31/07:30am 14.8 12.7 9.8 72 2.6 WNW 11 13 6 7 1018.6 1018.1 0.0
31/07:00am 12.6 11.0 7.9 73 2.4 WNW 6 7 3 4 1018.3 1017.8 0.0
31/06:30am 10.1 7.6 4.0 66 2.8 NNW 6 7 3 4 1018.0 1017.5 0.0
31/06:00am 10.4 9.4 5.8 73 2.2 N 0 0 0 0 1017.6 1017.0 0.0
31/05:30am 10.6 9.4 6.4 75 2.0 N 2 6 1 3 1017.3 1016.7 0.0
31/05:00am 10.8 8.7 5.6 70 2.5 N 6 7 3 4 1017.3 1016.7 0.0
31/04:30am 11.1 8.8 5.0 66 2.9 NNE 6 6 3 3 1017.3 1016.7 0.0
31/04:00am 11.3 10.2 5.2 66 2.9 CALM 0 0 0 0 1017.3 1016.7 0.0
31/03:30am 11.4 9.9 5.1 65 3.0 ENE 2 6 1 3 1017.1 1016.5 0.0
31/03:00am 12.4 10.7 7.7 73 2.4 ENE 6 7 3 4 1017.0 1016.4 0.0
31/02:30am 12.1 9.9 6.2 67 2.9 E 7 9 4 5 1017.2 1016.6 0.0
31/02:00am 13.5 12.6 6.1 61 3.6 CALM 0 0 0 0 1017.3 1016.7 0.0
31/01:30am 14.9 14.4 7.9 63 3.6 CALM 0 0 0 0 1017.5 1016.9 0.0
31/01:00am 15.7 13.6 8.2 61 3.9 S 9 11 5 6 1017.5 1016.9 0.0
31/12:30am 16.4 13.7 8.9 61 3.9 SSE 13 17 7 9 1017.6 1017.0 0.0
31/12:00am 17.3 13.5 9.0 58 4.4 S 19 24 10 13 1017.7 1017.2 0.0
 
Date/Time
WST
Temp
°C
App
Temp
°C
Dew
Point
Rel
Hum
%
Delta-T
°C
Wind Press
QNH
hPa
Press
MSL
hPa
Rain
since 9 am
mm
Dir
 
Spd
km/h
Gust
km/h
Spd
kts
Gust
kts
30/11:30pm 18.2 13.4 5.4 43 6.4 S 20 30 11 16 1017.6 1017.0 0.0
30/11:00pm 14.9 11.1 -3.9 27 7.5 N 7 9 4 5 1017.2 1016.6 0.0
30/10:30pm 14.9 10.7 -3.9 27 7.5 N 9 9 5 5 1017.1 1016.5 0.0
30/10:00pm 15.7 12.5 -3.7 26 7.8 NNW 4 6 2 3 1017.3 1016.7 0.0
30/09:30pm 16.6 12.4 -4.0 24 8.3 N 9 9 5 5 1017.4 1016.8 0.0
30/09:00pm 17.6 14.8 -3.7 23 8.7 NNW 2 7 1 4 1017.4 1016.8 0.0
30/08:30pm 17.6 14.4 -3.7 23 8.8 NNW 4 7 2 4 1017.3 1016.7 0.0
30/08:00pm 18.7 14.1 -4.0 21 9.4 NNW 11 15 6 8 1017.2 1016.6 0.0
30/07:30pm 20.1 15.5 -4.2 19 10.1 NW 11 13 6 7 1017.1 1016.5 0.0
30/07:00pm 21.3 17.0 -4.7 17 10.8 NW 9 11 5 6 1016.8 1016.2 0.0
30/06:30pm 22.8 18.9 -4.3 16 11.6 WNW 7 9 4 5 1016.5 1015.9 0.0
30/06:00pm 24.4 19.7 -4.8 14 12.5 NW 11 15 6 8 1016.1 1015.6 0.0
30/05:30pm 26.3 19.9 -5.3 12 13.6 WNW 20 30 11 16 1015.8 1015.2 0.0
30/05:00pm 27.2 19.9 -5.8 11 14.2 NW 24 32 13 17 1015.8 1015.2 0.0
30/04:30pm 27.9 21.5 -5.2 11 14.5 WNW 20 30 11 16 1015.7 1015.1 0.0
30/04:00pm 28.2 20.5 -6.3 10 14.9 WNW 26 41 14 22 1015.6 1015.0 0.0
30/03:30pm 28.0 20.1 -5.2 11 14.6 WNW 28 41 15 22 1015.5 1014.9 0.0
30/03:13pm 28.1 20.2 -5.1 11 14.6 WNW 28 54 15 29 1015.5 1014.9 0.0
30/03:00pm 28.2 19.5 -5.0 11 14.6 NW 32 39 17 21 1015.6 1015.0 0.0
30/02:30pm 27.9 19.6 -5.2 11 14.5 NW 30 41 16 22 1015.8 1015.2 0.0
30/02:00pm 28.4 20.5 -4.9 11 14.7 WNW 28 41 15 22 1016.0 1015.5 0.0
30/01:30pm 28.2 20.8 -3.9 12 14.4 WNW 26 35 14 19 1016.3 1015.8 0.0
30/01:00pm 27.2 19.3 -4.6 12 14.0 NW 28 41 15 22 1016.9 1016.3 0.0
30/12:56pm 28.0 20.2 -4.0 12 14.3 NW 28 48 15 26 1016.9 1016.3 0.0
30/12:30pm 27.9 21.7 -3.0 13 14.1 WNW 20 33 11 18 1017.3 1016.7 0.0
30/12:00pm 26.8 20.6 -2.9 14 13.4 WNW 20 32 11 17 1017.6 1017.0 0.0
30/11:30am 26.6 19.6 -3.1 14 13.4 WNW 24 32 13 17 1018.3 1017.8 0.0
30/11:00am 24.8 19.4 -1.1 18 11.9 WNW 17 24 9 13 1018.8 1018.2 0.0
30/10:30am 25.2 20.7 0.0 19 11.9 NW 13 20 7 11 1019.2 1018.6 0.0
30/10:00am 23.8 19.3 -0.5 20 11.2 W 13 20 7 11 1019.5 1018.9 0.0
30/09:30am 22.8 18.6 -0.6 21 10.7 WNW 11 17 6 9 1019.7 1019.2 0.0
30/09:00am 21.5 18.1 -0.5 23 10.0 NW 7 13 4 7 1020.0 1019.5 0.0
30/08:30am 19.5 15.5 -2.2 23 9.4 NW 9 13 5 7 1020.1 1019.6 0.0
30/08:00am 17.7 14.1 -3.7 23 8.8 NNW 6 7 3 4 1020.0 1019.5 0.0
30/07:30am 15.6 11.7 -4.3 25 7.9 N 7 9 4 5 1019.6 1019.1 0.0
30/07:00am 13.1 9.2 -5.0 28 6.9 N 7 9 4 5 1019.4 1018.8 0.0
30/06:30am 10.8 6.0 -6.1 30 6.1 N 11 13 6 7 1018.9 1018.3 0.0
30/06:00am 10.0 5.6 -6.3 31 5.8 N 9 11 5 6 1018.5 1018.0 0.0
30/05:30am 11.0 7.1 -6.3 29 6.2 N 6 9 3 5 1018.1 1017.6 0.0
30/05:00am 10.7 6.2 -6.6 29 6.2 N 9 11 5 6 1017.8 1017.3 0.0
30/04:30am 11.3 6.5 -6.5 28 6.4 N 11 13 6 7 1017.9 1017.4 0.0
30/04:00am 12.0 8.1 -6.4 27 6.7 NNE 6 9 3 5 1017.7 1017.2 0.0
30/03:30am 12.3 7.1 -6.6 26 6.9 N 13 13 7 7 1017.6 1017.0 0.0
30/03:00am 12.3 7.1 -6.6 26 6.9 N 13 15 7 8 1017.7 1017.2 0.0
30/02:30am 12.4 7.9 -6.5 26 6.9 N 9 11 5 6 1017.9 1017.4 0.0
30/02:00am 12.3 7.4 -6.6 26 6.9 N 11 13 6 7 1017.6 1017.0 0.0
30/01:30am 12.9 8.0 -6.6 25 7.2 N 11 15 6 8 1017.6 1017.0 0.0
30/01:00am 13.7 8.4 -7.0 23 7.6 N 13 13 7 7 1017.8 1017.3 0.0
30/12:30am 14.1 8.9 -6.7 23 7.7 N 13 15 7 8 1017.7 1017.2 0.0
30/12:00am 14.4 9.9 -6.4 23 7.8 N 9 13 5 7 1017.8 1017.3 0.0
 
Date/Time
WST
Temp
°C
App
Temp
°C
Dew
Point
Rel
Hum
%
Delta-T
°C
Wind Press
QNH
hPa
Press
MSL
hPa
Rain
since 9 am
mm
Dir
 
Spd
km/h
Gust
km/h
Spd
kts
Gust
kts
29/11:30pm 14.5 9.3 -6.4 23 7.8 N 13 15 7 8 1017.7 1017.2 0.0
29/11:00pm 13.3 8.9 -6.3 25 7.3 N 9 11 5 6 1017.7 1017.2 0.0
29/10:30pm 14.2 10.2 -6.1 24 7.6 N 7 11 4 6 1017.5 1016.9 0.0
29/10:00pm 14.8 10.8 -6.1 23 7.9 N 7 9 4 5 1017.5 1016.9 0.0
29/09:30pm 15.0 12.3 -5.9 23 8.0 CALM 0 0 0 0 1017.6 1017.0 0.0
29/09:00pm 16.7 14.0 -6.3 20 8.9 CALM 0 4 0 2 1017.7 1017.2 0.0
29/08:30pm 17.2 13.7 -6.6 19 9.2 N 4 15 2 8 1017.7 1017.2 0.0
29/08:00pm 19.0 16.2 -6.6 17 10.0 CALM 0 0 0 0 1017.7 1017.2 0.0
29/07:30pm 20.8 16.6 -7.6 14 11.1 WNW 7 9 4 5 1017.4 1016.8 0.0
29/07:00pm 21.3 16.7 -8.2 13 11.5 N 9 11 5 6 1017.0 1016.4 0.0
29/06:30pm 24.3 18.8 -9.2 10 13.2 NNW 13 15 7 8 1016.6 1016.0 0.0
29/06:00pm 25.5 20.4 -9.7 9 13.9 NW 11 17 6 9 1016.1 1015.6 0.0
29/05:30pm 27.5 21.2 -9.7 8 15.0 NW 17 24 9 13 1015.9 1015.4 0.0
29/05:00pm 28.5 21.0 -8.9 8 15.4 WNW 24 35 13 19 1015.9 1015.4 0.0
29/04:30pm 29.3 21.3 -10.0 7 16.0 NW 26 37 14 20 1015.8 1015.2 0.0
29/04:00pm 29.5 21.5 -9.9 7 16.1 NNW 26 39 14 21 1015.6 1015.0 0.0
29/03:30pm 29.6 20.9 -9.8 7 16.2 NNW 30 35 16 19 1015.7 1015.1 0.0
29/03:00pm 29.9 20.8 -9.6 7 16.3 WNW 32 39 17 21 1015.7 1015.1 0.0
29/02:50pm 30.0 20.9 -9.5 7 16.4 NNW 32 39 17 21 1015.8 1015.2 0.0
29/02:34pm 29.8 19.4 -9.7 7 16.3 WNW 39 44 21 24 1015.9 1015.4 0.0
29/02:30pm 30.0 20.7 -9.5 7 16.4 NNW 33 50 18 27 1015.8 1015.2 0.0
29/02:29pm 30.2 21.1 -9.4 7 16.5 NNW 32 50 17 27 1015.8 1015.2 0.0
29/02:00pm 30.9 22.6 -8.9 7 16.8 NNW 28 41 15 22 1016.1 1015.6 0.0
29/01:32pm 29.6 21.2 -9.8 7 16.2 NNW 28 46 15 25 1016.5 1015.9 0.0
29/01:30pm 30.2 22.3 -9.4 7 16.5 NNW 26 39 14 21 1016.3 1015.8 0.0
29/01:00pm 29.9 21.2 -9.6 7 16.3 NNW 30 44 16 24 1016.8 1016.2 0.0
29/12:30pm 29.5 20.8 -9.9 7 16.1 NW 30 39 16 21 1017.4 1016.8 0.0
29/12:00pm 28.8 19.6 -8.7 8 15.6 NNW 33 46 18 25 1018.1 1017.6 0.0
29/11:30am 28.0 18.9 -9.3 8 15.2 NNW 32 39 17 21 1018.6 1018.1 0.0
29/11:00am 27.2 18.5 -9.9 8 14.8 NW 30 43 16 23 1019.2 1018.6 0.0
29/10:30am 26.8 18.9 -8.7 9 14.5 NW 26 33 14 18 1019.6 1019.1 0.0
29/10:00am 25.9 18.0 -9.4 9 14.1 NNW 26 39 14 21 1019.8 1019.3 0.0
29/09:30am 24.8 16.9 -8.8 10 13.4 NW 26 33 14 18 1020.1 1019.6 0.0
29/09:00am 24.0 17.2 -9.5 10 13.1 NNW 20 30 11 16 1020.1 1019.6 0.0
29/08:30am 22.4 15.7 -8.4 12 12.1 NNW 20 26 11 14 1020.1 1019.6 0.0
29/08:00am 19.9 14.2 -7.5 15 10.6 NNW 15 20 8 11 1020.2 1019.7 0.0
29/07:30am 17.0 12.5 -6.8 19 9.1 WNW 9 15 5 8 1020.1 1019.6 0.0
29/07:00am 15.5 11.0 -7.3 20 8.5 NNW 9 11 5 6 1019.5 1018.9 0.0
29/06:30am 13.8 9.8 -7.5 22 7.7 NNW 6 7 3 4 1019.1 1018.5 0.0
29/06:00am 13.6 9.4 -7.7 22 7.7 N 7 9 4 5 1018.5 1018.0 0.0
29/05:30am 14.6 10.0 -7.4 21 8.1 N 9 11 5 6 1018.5 1018.0 0.0
29/05:00am 14.7 10.1 -7.4 21 8.1 N 9 11 5 6 1018.3 1017.8 0.0
29/04:30am 14.9 10.3 -7.8 20 8.3 NNW 9 9 5 5 1018.4 1017.9 0.0
29/04:00am 16.1 10.7 -8.2 18 8.9 N 13 15 7 8 1018.0 1017.5 0.0
29/03:30am 17.0 11.6 -8.2 17 9.4 N 13 17 7 9 1017.9 1017.4 0.0
29/03:00am 17.4 11.6 -8.6 16 9.6 N 15 17 8 9 1017.7 1017.2 0.0
29/02:30am 18.0 12.2 -8.2 16 9.9 N 15 19 8 10 1017.9 1017.4 0.0
29/02:00am 18.7 12.5 -8.4 15 10.2 N 17 19 9 10 1018.0 1017.5 0.0
29/01:30am 19.5 13.3 -8.7 14 10.7 N 17 22 9 12 1018.2 1017.7 0.0
29/01:00am 19.7 13.5 -8.5 14 10.7 N 17 20 9 11 1018.5 1018.0 0.0
29/12:30am 18.9 13.2 -7.4 16 10.2 N 15 19 8 10 1018.8 1018.2 0.0
29/12:00am 18.9 13.2 -7.4 16 10.1 NNE 15 17 8 9 1018.9 1018.3 0.0
 
Date/Time
WST
Temp
°C
App
Temp
°C
Dew
Point
Rel
Hum
%
Delta-T
°C
Wind Press
QNH
hPa
Press
MSL
hPa
Rain
since 9 am
mm
Dir
 
Spd
km/h
Gust
km/h
Spd
kts
Gust
kts
28/11:30pm 18.7 13.4 -7.6 16 10.1 N 13 17 7 9 1019.0 1018.4 0.0
28/11:00pm 19.1 13.0 -8.1 15 10.3 N 17 20 9 11 1019.1 1018.5 0.0
28/10:30pm 19.0 13.2 -8.2 15 10.3 N 15 19 8 10 1019.2 1018.6 0.0
28/10:00pm 18.8 13.0 -8.3 15 10.2 NNE 15 17 8 9 1019.3 1018.7 0.0
28/09:30pm 18.3 12.9 -7.9 16 9.9 NNE 13 15 7 8 1019.4 1018.8 0.0
28/09:00pm 18.9 13.6 -7.4 16 10.1 NNE 13 15 7 8 1019.3 1018.7 0.0
28/08:30pm 19.0 13.3 -7.4 16 10.2 N 15 17 8 9 1019.2 1018.6 0.0
28/08:00pm 19.5 14.2 -7.8 15 10.5 N 13 15 7 8 1019.2 1018.6 0.0
28/07:30pm 20.5 15.2 -7.0 15 10.9 N 13 15 7 8 1019.0 1018.4 0.0
28/07:00pm 20.8 15.9 -7.6 14 11.1 N 11 13 6 7 1018.8 1018.2 0.0
28/06:30pm 22.7 18.1 -8.1 12 12.2 NNW 9 11 5 6 1018.4 1017.9 0.0
28/06:00pm 24.9 20.2 -8.8 10 13.4 NNW 9 11 5 6 1018.2 1017.7 0.0
28/05:30pm 26.3 21.2 -9.1 9 14.3 NW 11 15 6 8 1017.9 1017.4 0.0
28/05:00pm 27.9 22.0 -9.4 8 15.2 N 15 19 8 10 1017.9 1017.4 0.0
28/04:30pm 29.2 22.1 -8.4 8 15.8 NW 22 26 12 14 1017.7 1017.2 0.0
28/04:00pm 29.2 23.4 -8.4 8 15.7 N 15 24 8 13 1017.5 1016.9 0.0
28/03:30pm 29.6 23.8 -8.1 8 15.9 N 15 24 8 13 1017.5 1016.9 0.0
28/03:00pm 29.6 22.9 -8.1 8 15.9 NW 20 33 11 18 1017.8 1017.3 0.0
28/02:30pm 29.8 23.0 -9.7 7 16.3 NNW 20 33 11 18 1017.9 1017.4 0.0
28/02:00pm 29.5 23.0 -8.2 8 15.9 NW 19 30 10 16 1018.1 1017.6 0.0
28/01:30pm 30.0 22.9 -7.8 8 16.1 NNW 22 33 12 18 1018.2 1017.7 0.0
28/01:00pm 29.7 23.0 -8.0 8 16.0 N 20 28 11 15 1018.8 1018.2 0.0
28/12:30pm 29.5 22.8 -8.2 8 15.9 NNW 20 33 11 18 1019.2 1018.6 0.0
28/12:00pm 28.8 22.7 -7.2 9 15.3 N 17 33 9 18 1019.7 1019.2 0.0
28/11:30am 28.2 21.5 -7.6 9 15.1 NNW 20 32 11 17 1020.1 1019.6 0.0
28/11:00am 29.0 23.0 -7.0 9 15.4 N 17 24 9 13 1020.5 1020.0 0.0
28/10:30am 27.9 21.3 -6.5 10 14.7 NNW 20 24 11 13 1020.8 1020.3 0.0
28/10:00am 27.4 21.4 -6.9 10 14.5 N 17 24 9 13 1021.1 1020.5 0.0
28/09:30am 26.4 20.8 -6.4 11 13.9 N 15 19 8 10 1021.3 1020.7 0.0
28/09:00am 24.7 19.1 -6.6 12 13.0 N 15 20 8 11 1021.6 1021.1 0.0
28/08:30am 24.2 18.2 -7.0 12 12.8 N 17 22 9 12 1021.4 1020.8 0.0

Other Formats:

Comma delimited format used in spreadsheet applications
http://www.bom.gov.au/fwo/IDW60801/IDW60801.94449.axf

JavaScript Object Notation format (JSON) in row-major order
http://www.bom.gov.au/fwo/IDW60801/IDW60801.94449.json